sensor_id;sensor_type;location;lat;lon;timestamp;temperature;humidity
66102;HTU21D;52883;51.094;5.880;2022-09-09T00:00:13;14.08;118.99
66102;HTU21D;52883;51.094;5.880;2022-09-09T00:02:48;14.03;118.99
66102;HTU21D;52883;51.094;5.880;2022-09-09T00:05:20;13.93;118.99
66102;HTU21D;52883;51.094;5.880;2022-09-09T00:07:52;13.84;118.99
66102;HTU21D;52883;51.094;5.880;2022-09-09T00:10:29;13.79;118.99
66102;HTU21D;52883;51.094;5.880;2022-09-09T00:13:16;13.71;118.99
66102;HTU21D;52883;51.094;5.880;2022-09-09T00:19:06;13.62;118.99
66102;HTU21D;52883;51.094;5.880;2022-09-09T00:23:58;13.47;118.99
66102;HTU21D;52883;51.094;5.880;2022-09-09T00:29:28;13.48;118.99
66102;HTU21D;52883;51.094;5.880;2022-09-09T00:32:11;13.51;118.99
66102;HTU21D;52883;51.094;5.880;2022-09-09T00:34:44;13.50;118.99
66102;HTU21D;52883;51.094;5.880;2022-09-09T00:37:10;13.41;118.99
66102;HTU21D;52883;51.094;5.880;2022-09-09T00:39:44;13.32;118.99
66102;HTU21D;52883;51.094;5.880;2022-09-09T00:42:45;13.21;118.99
66102;HTU21D;52883;51.094;5.880;2022-09-09T00:47:53;13.17;118.99
66102;HTU21D;52883;51.094;5.880;2022-09-09T00:50:52;13.17;118.99
66102;HTU21D;52883;51.094;5.880;2022-09-09T00:53:51;13.19;118.99
66102;HTU21D;52883;51.094;5.880;2022-09-09T00:56:40;13.19;118.99
66102;HTU21D;52883;51.094;5.880;2022-09-09T00:59:28;13.18;118.99
66102;HTU21D;52883;51.094;5.880;2022-09-09T01:01:58;13.16;118.99
66102;HTU21D;52883;51.094;5.880;2022-09-09T01:04:34;13.18;118.99
66102;HTU21D;52883;51.094;5.880;2022-09-09T01:07:17;13.17;118.99
66102;HTU21D;52883;51.094;5.880;2022-09-09T01:09:57;13.21;118.99
66102;HTU21D;52883;51.094;5.880;2022-09-09T01:12:28;13.21;118.99
66102;HTU21D;52883;51.094;5.880;2022-09-09T01:15:23;13.19;118.99
66102;HTU21D;52883;51.094;5.880;2022-09-09T01:18:27;13.22;118.99
66102;HTU21D;52883;51.094;5.880;2022-09-09T01:21:27;13.22;118.99
66102;HTU21D;52883;51.094;5.880;2022-09-09T01:27:06;13.26;118.99
66102;HTU21D;52883;51.094;5.880;2022-09-09T01:29:33;13.25;118.99
66102;HTU21D;52883;51.094;5.880;2022-09-09T01:32:01;13.32;118.99
66102;HTU21D;52883;51.094;5.880;2022-09-09T01:34:33;13.38;118.99
66102;HTU21D;52883;51.094;5.880;2022-09-09T01:37:03;13.41;118.99
66102;HTU21D;52883;51.094;5.880;2022-09-09T01:39:32;13.46;118.99
66102;HTU21D;52883;51.094;5.880;2022-09-09T01:42:07;13.47;118.99
66102;HTU21D;52883;51.094;5.880;2022-09-09T01:44:35;13.51;118.99
66102;HTU21D;52883;51.094;5.880;2022-09-09T01:47:03;13.50;118.99
66102;HTU21D;52883;51.094;5.880;2022-09-09T01:49:28;13.45;118.99
66102;HTU21D;52883;51.094;5.880;2022-09-09T01:51:56;13.39;118.99
66102;HTU21D;52883;51.094;5.880;2022-09-09T01:54:33;13.33;118.99
66102;HTU21D;52883;51.094;5.880;2022-09-09T01:58:11;13.30;118.99
66102;HTU21D;52883;51.094;5.880;2022-09-09T02:00:17;13.21;118.99
66102;HTU21D;52883;51.094;5.880;2022-09-09T02:08:48;13.26;118.99
66102;HTU21D;52883;51.094;5.880;2022-09-09T02:11:21;13.31;118.99
66102;HTU21D;52883;51.094;5.880;2022-09-09T02:14:08;13.40;118.99
66102;HTU21D;52883;51.094;5.880;2022-09-09T02:16:47;13.45;118.99
66102;HTU21D;52883;51.094;5.880;2022-09-09T02:19:14;13.48;118.99
66102;HTU21D;52883;51.094;5.880;2022-09-09T02:21:59;13.53;118.99
66102;HTU21D;52883;51.094;5.880;2022-09-09T02:24:29;13.49;118.99
66102;HTU21D;52883;51.094;5.880;2022-09-09T02:27:20;13.58;118.99
66102;HTU21D;52883;51.094;5.880;2022-09-09T02:29:49;13.68;118.99
66102;HTU21D;52883;51.094;5.880;2022-09-09T02:32:24;13.73;118.99
66102;HTU21D;52883;51.094;5.880;2022-09-09T02:35:17;13.67;118.99
66102;HTU21D;52883;51.094;5.880;2022-09-09T02:37:46;13.67;118.99
66102;HTU21D;52883;51.094;5.880;2022-09-09T02:40:14;13.69;118.99
66102;HTU21D;52883;51.094;5.880;2022-09-09T02:42:48;13.67;118.99
66102;HTU21D;52883;51.094;5.880;2022-09-09T02:45:24;13.66;118.99
66102;HTU21D;52883;51.094;5.880;2022-09-09T02:48:14;13.65;118.99
66102;HTU21D;52883;51.094;5.880;2022-09-09T02:51:06;13.64;118.99
66102;HTU21D;52883;51.094;5.880;2022-09-09T02:56:25;13.68;118.99
66102;HTU21D;52883;51.094;5.880;2022-09-09T02:58:55;13.71;118.99
66102;HTU21D;52883;51.094;5.880;2022-09-09T03:01:21;13.74;118.99
66102;HTU21D;52883;51.094;5.880;2022-09-09T03:03:47;13.81;118.99
66102;HTU21D;52883;51.094;5.880;2022-09-09T03:06:15;13.82;118.99
66102;HTU21D;52883;51.094;5.880;2022-09-09T03:08:44;13.89;118.99
66102;HTU21D;52883;51.094;5.880;2022-09-09T03:11:10;13.96;118.99
66102;HTU21D;52883;51.094;5.880;2022-09-09T03:13:36;13.97;118.99
66102;HTU21D;52883;51.094;5.880;2022-09-09T03:16:03;13.94;118.99
66102;HTU21D;52883;51.094;5.880;2022-09-09T03:18:33;13.90;118.99
66102;HTU21D;52883;51.094;5.880;2022-09-09T03:21:00;13.86;118.99
66102;HTU21D;52883;51.094;5.880;2022-09-09T03:23:26;13.89;118.99
66102;HTU21D;52883;51.094;5.880;2022-09-09T03:25:51;13.93;118.99
66102;HTU21D;52883;51.094;5.880;2022-09-09T03:28:22;13.94;118.99
66102;HTU21D;52883;51.094;5.880;2022-09-09T03:30:49;13.98;118.99
66102;HTU21D;52883;51.094;5.880;2022-09-09T03:33:15;14.03;118.99
66102;HTU21D;52883;51.094;5.880;2022-09-09T03:35:46;14.08;118.99
66102;HTU21D;52883;51.094;5.880;2022-09-09T03:38:16;14.14;118.99
66102;HTU21D;52883;51.094;5.880;2022-09-09T03:40:53;14.23;118.99
66102;HTU21D;52883;51.094;5.880;2022-09-09T03:43:25;14.25;118.99
66102;HTU21D;52883;51.094;5.880;2022-09-09T03:45:53;14.23;118.99
66102;HTU21D;52883;51.094;5.880;2022-09-09T03:48:19;14.19;118.99
66102;HTU21D;52883;51.094;5.880;2022-09-09T03:50:47;14.15;118.99
66102;HTU21D;52883;51.094;5.880;2022-09-09T03:53:15;14.09;118.99
66102;HTU21D;52883;51.094;5.880;2022-09-09T03:55:53;14.01;118.99
66102;HTU21D;52883;51.094;5.880;2022-09-09T03:58:23;13.98;118.99
66102;HTU21D;52883;51.094;5.880;2022-09-09T04:01:03;13.96;118.99
66102;HTU21D;52883;51.094;5.880;2022-09-09T04:03:29;13.93;118.99
66102;HTU21D;52883;51.094;5.880;2022-09-09T04:05:57;13.97;118.99
66102;HTU21D;52883;51.094;5.880;2022-09-09T04:08:26;14.05;118.99
66102;HTU21D;52883;51.094;5.880;2022-09-09T04:10:53;14.12;118.99
66102;HTU21D;52883;51.094;5.880;2022-09-09T04:13:19;14.17;118.99
66102;HTU21D;52883;51.094;5.880;2022-09-09T04:15:54;14.22;118.99
66102;HTU21D;52883;51.094;5.880;2022-09-09T04:18:21;14.27;118.99
66102;HTU21D;52883;51.094;5.880;2022-09-09T04:20:48;14.34;118.99
66102;HTU21D;52883;51.094;5.880;2022-09-09T04:23:15;14.37;118.99
66102;HTU21D;52883;51.094;5.880;2022-09-09T04:25:48;14.44;118.99
66102;HTU21D;52883;51.094;5.880;2022-09-09T04:28:15;14.53;118.99
66102;HTU21D;52883;51.094;5.880;2022-09-09T04:30:43;14.58;118.99
66102;HTU21D;52883;51.094;5.880;2022-09-09T04:33:10;14.63;118.99
66102;HTU21D;52883;51.094;5.880;2022-09-09T04:35:37;14.63;118.99
66102;HTU21D;52883;51.094;5.880;2022-09-09T04:38:03;14.64;118.99
66102;HTU21D;52883;51.094;5.880;2022-09-09T04:40:31;14.65;118.99
66102;HTU21D;52883;51.094;5.880;2022-09-09T04:43:01;14.64;118.99
66102;HTU21D;52883;51.094;5.880;2022-09-09T04:45:29;14.64;118.99
66102;HTU21D;52883;51.094;5.880;2022-09-09T04:47:55;14.62;118.99
66102;HTU21D;52883;51.094;5.880;2022-09-09T04:50:21;14.65;118.99
66102;HTU21D;52883;51.094;5.880;2022-09-09T04:52:47;14.66;118.99
66102;HTU21D;52883;51.094;5.880;2022-09-09T04:55:13;14.66;118.99
66102;HTU21D;52883;51.094;5.880;2022-09-09T04:57:40;14.65;118.99
66102;HTU21D;52883;51.094;5.880;2022-09-09T05:00:10;14.59;118.99
66102;HTU21D;52883;51.094;5.880;2022-09-09T05:02:38;14.53;118.99
66102;HTU21D;52883;51.094;5.880;2022-09-09T05:05:05;14.48;118.99
66102;HTU21D;52883;51.094;5.880;2022-09-09T05:07:30;14.43;118.99
66102;HTU21D;52883;51.094;5.880;2022-09-09T05:09:57;14.38;118.99
66102;HTU21D;52883;51.094;5.880;2022-09-09T05:12:24;14.30;118.99
66102;HTU21D;52883;51.094;5.880;2022-09-09T05:14:51;14.28;118.99
66102;HTU21D;52883;51.094;5.880;2022-09-09T05:17:17;14.30;118.99
66102;HTU21D;52883;51.094;5.880;2022-09-09T05:19:43;14.29;118.99
66102;HTU21D;52883;51.094;5.880;2022-09-09T05:22:10;14.28;118.99
66102;HTU21D;52883;51.094;5.880;2022-09-09T05:24:42;14.30;118.99
66102;HTU21D;52883;51.094;5.880;2022-09-09T05:27:08;14.30;118.99
66102;HTU21D;52883;51.094;5.880;2022-09-09T05:29:37;14.30;118.99
66102;HTU21D;52883;51.094;5.880;2022-09-09T05:32:05;14.32;118.99
66102;HTU21D;52883;51.094;5.880;2022-09-09T05:34:31;14.35;118.99
66102;HTU21D;52883;51.094;5.880;2022-09-09T05:36:57;14.39;118.99
66102;HTU21D;52883;51.094;5.880;2022-09-09T05:39:24;14.43;118.99
66102;HTU21D;52883;51.094;5.880;2022-09-09T05:41:50;14.49;118.99
66102;HTU21D;52883;51.094;5.880;2022-09-09T05:44:16;14.55;118.99
66102;HTU21D;52883;51.094;5.880;2022-09-09T05:46:43;14.58;118.99
66102;HTU21D;52883;51.094;5.880;2022-09-09T05:49:11;14.62;118.99
66102;HTU21D;52883;51.094;5.880;2022-09-09T05:51:38;14.74;118.99
66102;HTU21D;52883;51.094;5.880;2022-09-09T05:54:08;14.88;118.99
66102;HTU21D;52883;51.094;5.880;2022-09-09T05:56:38;14.94;118.99
66102;HTU21D;52883;51.094;5.880;2022-09-09T05:59:06;15.34;118.99
66102;HTU21D;52883;51.094;5.880;2022-09-09T06:01:34;15.91;118.99
66102;HTU21D;52883;51.094;5.880;2022-09-09T06:04:02;16.12;118.99
66102;HTU21D;52883;51.094;5.880;2022-09-09T06:06:35;16.14;118.99
66102;HTU21D;52883;51.094;5.880;2022-09-09T06:09:04;16.61;118.99
66102;HTU21D;52883;51.094;5.880;2022-09-09T06:11:37;16.64;118.99
66102;HTU21D;52883;51.094;5.880;2022-09-09T06:14:04;16.28;118.99
66102;HTU21D;52883;51.094;5.880;2022-09-09T06:16:32;16.06;118.99
66102;HTU21D;52883;51.094;5.880;2022-09-09T06:18:58;16.46;118.99
66102;HTU21D;52883;51.094;5.880;2022-09-09T06:21:28;17.05;118.99
66102;HTU21D;52883;51.094;5.880;2022-09-09T06:23:56;17.61;118.99
66102;HTU21D;52883;51.094;5.880;2022-09-09T06:28:54;17.70;118.99
66102;HTU21D;52883;51.094;5.880;2022-09-09T06:31:23;17.43;118.99
66102;HTU21D;52883;51.094;5.880;2022-09-09T06:33:51;17.28;118.99
66102;HTU21D;52883;51.094;5.880;2022-09-09T06:36:20;17.14;118.99
66102;HTU21D;52883;51.094;5.880;2022-09-09T06:38:47;17.00;118.99
66102;HTU21D;52883;51.094;5.880;2022-09-09T06:41:16;16.88;118.99
66102;HTU21D;52883;51.094;5.880;2022-09-09T06:43:47;16.82;118.99
66102;HTU21D;52883;51.094;5.880;2022-09-09T06:46:23;16.89;118.99
66102;HTU21D;52883;51.094;5.880;2022-09-09T06:48:54;16.92;118.99
66102;HTU21D;52883;51.094;5.880;2022-09-09T06:51:23;16.96;118.99
66102;HTU21D;52883;51.094;5.880;2022-09-09T06:53:54;16.98;118.99
66102;HTU21D;52883;51.094;5.880;2022-09-09T06:58:56;16.89;118.99
66102;HTU21D;52883;51.094;5.880;2022-09-09T07:01:28;16.98;118.99
66102;HTU21D;52883;51.094;5.880;2022-09-09T07:03:57;17.07;118.99
66102;HTU21D;52883;51.094;5.880;2022-09-09T07:06:29;17.04;118.99
66102;HTU21D;52883;51.094;5.880;2022-09-09T07:09:00;16.96;118.99
66102;HTU21D;52883;51.094;5.880;2022-09-09T07:11:30;17.08;118.99
66102;HTU21D;52883;51.094;5.880;2022-09-09T07:14:00;17.06;118.99
66102;HTU21D;52883;51.094;5.880;2022-09-09T07:16:27;17.01;118.99
66102;HTU21D;52883;51.094;5.880;2022-09-09T07:18:57;16.92;118.99
66102;HTU21D;52883;51.094;5.880;2022-09-09T07:21:25;16.92;118.99
66102;HTU21D;52883;51.094;5.880;2022-09-09T07:23:53;16.87;118.99
66102;HTU21D;52883;51.094;5.880;2022-09-09T07:26:21;16.80;118.99
66102;HTU21D;52883;51.094;5.880;2022-09-09T07:28:48;16.91;118.99
66102;HTU21D;52883;51.094;5.880;2022-09-09T07:31:29;17.17;118.99
66102;HTU21D;52883;51.094;5.880;2022-09-09T07:33:59;17.45;118.99
66102;HTU21D;52883;51.094;5.880;2022-09-09T07:36:29;17.84;118.99
66102;HTU21D;52883;51.094;5.880;2022-09-09T07:38:58;18.20;118.99
66102;HTU21D;52883;51.094;5.880;2022-09-09T07:41:29;18.34;118.99
66102;HTU21D;52883;51.094;5.880;2022-09-09T07:43:55;18.20;118.99
66102;HTU21D;52883;51.094;5.880;2022-09-09T07:46:24;18.19;118.99
66102;HTU21D;52883;51.094;5.880;2022-09-09T07:48:53;18.27;118.99
66102;HTU21D;52883;51.094;5.880;2022-09-09T07:51:29;18.39;118.99
66102;HTU21D;52883;51.094;5.880;2022-09-09T07:53:58;18.25;118.99
66102;HTU21D;52883;51.094;5.880;2022-09-09T07:56:26;18.00;118.99
66102;HTU21D;52883;51.094;5.880;2022-09-09T07:58:54;17.89;118.99
66102;HTU21D;52883;51.094;5.880;2022-09-09T08:01:27;17.67;118.99
66102;HTU21D;52883;51.094;5.880;2022-09-09T08:04:14;17.62;118.99
66102;HTU21D;52883;51.094;5.880;2022-09-09T08:06:43;17.47;118.99
66102;HTU21D;52883;51.094;5.880;2022-09-09T08:09:10;17.41;118.99
66102;HTU21D;52883;51.094;5.880;2022-09-09T08:11:37;17.46;118.99
66102;HTU21D;52883;51.094;5.880;2022-09-09T08:14:03;17.54;118.99
66102;HTU21D;52883;51.094;5.880;2022-09-09T08:16:33;17.66;118.99
66102;HTU21D;52883;51.094;5.880;2022-09-09T08:18:59;17.77;118.99
66102;HTU21D;52883;51.094;5.880;2022-09-09T08:21:28;17.82;118.99
66102;HTU21D;52883;51.094;5.880;2022-09-09T08:23:57;17.94;118.99
66102;HTU21D;52883;51.094;5.880;2022-09-09T08:26:32;17.97;118.99
66102;HTU21D;52883;51.094;5.880;2022-09-09T08:29:02;18.33;118.99
66102;HTU21D;52883;51.094;5.880;2022-09-09T08:31:35;18.62;118.99
66102;HTU21D;52883;51.094;5.880;2022-09-09T08:34:06;18.72;118.99
66102;HTU21D;52883;51.094;5.880;2022-09-09T08:36:35;18.86;118.99
66102;HTU21D;52883;51.094;5.880;2022-09-09T08:39:04;19.00;118.99
66102;HTU21D;52883;51.094;5.880;2022-09-09T08:41:55;19.47;118.99
66102;HTU21D;52883;51.094;5.880;2022-09-09T08:52:27;20.48;118.99
66102;HTU21D;52883;51.094;5.880;2022-09-09T08:57:51;19.71;118.99
66102;HTU21D;52883;51.094;5.880;2022-09-09T09:00:18;19.58;118.99
66102;HTU21D;52883;51.094;5.880;2022-09-09T09:05:46;19.21;118.99
66102;HTU21D;52883;51.094;5.880;2022-09-09T09:10:56;19.44;118.99
66102;HTU21D;52883;51.094;5.880;2022-09-09T09:13:47;19.38;118.99
66102;HTU21D;52883;51.094;5.880;2022-09-09T09:18:53;18.89;118.99
66102;HTU21D;52883;51.094;5.880;2022-09-09T09:25:01;18.55;118.99
66102;HTU21D;52883;51.094;5.880;2022-09-09T09:27:13;18.73;118.99
66102;HTU21D;52883;51.094;5.880;2022-09-09T09:29:42;19.26;118.99
66102;HTU21D;52883;51.094;5.880;2022-09-09T09:32:18;19.58;118.99
66102;HTU21D;52883;51.094;5.880;2022-09-09T09:34:53;19.94;118.99
66102;HTU21D;52883;51.094;5.880;2022-09-09T09:37:32;20.26;118.99
66102;HTU21D;52883;51.094;5.880;2022-09-09T09:40:09;20.54;118.99
66102;HTU21D;52883;51.094;5.880;2022-09-09T09:42:35;20.64;118.99
66102;HTU21D;52883;51.094;5.880;2022-09-09T09:45:15;20.77;118.99
66102;HTU21D;52883;51.094;5.880;2022-09-09T09:47:44;20.49;118.99
66102;HTU21D;52883;51.094;5.880;2022-09-09T09:50:19;20.14;118.99
66102;HTU21D;52883;51.094;5.880;2022-09-09T09:52:58;20.05;118.99
66102;HTU21D;52883;51.094;5.880;2022-09-09T09:55:32;20.34;118.99
66102;HTU21D;52883;51.094;5.880;2022-09-09T09:58:13;20.66;118.99
66102;HTU21D;52883;51.094;5.880;2022-09-09T10:00:48;20.71;118.99
66102;HTU21D;52883;51.094;5.880;2022-09-09T10:03:25;20.69;118.99
66102;HTU21D;52883;51.094;5.880;2022-09-09T10:05:53;20.44;118.99
66102;HTU21D;52883;51.094;5.880;2022-09-09T10:08:20;19.88;118.99
66102;HTU21D;52883;51.094;5.880;2022-09-09T10:13:38;18.80;118.99
66102;HTU21D;52883;51.094;5.880;2022-09-09T10:16:45;18.63;118.99
66102;HTU21D;52883;51.094;5.880;2022-09-09T10:19:25;18.81;118.99
66102;HTU21D;52883;51.094;5.880;2022-09-09T10:22:17;19.22;118.99
66102;HTU21D;52883;51.094;5.880;2022-09-09T10:24:50;19.68;118.99
66102;HTU21D;52883;51.094;5.880;2022-09-09T10:27:32;19.83;118.99
66102;HTU21D;52883;51.094;5.880;2022-09-09T10:33:13;19.36;118.99
66102;HTU21D;52883;51.094;5.880;2022-09-09T10:35:53;19.21;118.99
66102;HTU21D;52883;51.094;5.880;2022-09-09T10:38:36;18.98;118.99
66102;HTU21D;52883;51.094;5.880;2022-09-09T10:46:51;18.70;118.99
66102;HTU21D;52883;51.094;5.880;2022-09-09T10:52:29;18.66;118.99
66102;HTU21D;52883;51.094;5.880;2022-09-09T10:55:24;18.62;118.99
66102;HTU21D;52883;51.094;5.880;2022-09-09T10:57:52;18.65;118.99
66102;HTU21D;52883;51.094;5.880;2022-09-09T11:00:24;18.82;118.99
66102;HTU21D;52883;51.094;5.880;2022-09-09T11:03:02;19.13;118.99
66102;HTU21D;52883;51.094;5.880;2022-09-09T11:05:56;19.21;118.99
66102;HTU21D;52883;51.094;5.880;2022-09-09T11:08:29;19.05;118.99
66102;HTU21D;52883;51.094;5.880;2022-09-09T11:17:56;17.93;118.99
66102;HTU21D;52883;51.094;5.880;2022-09-09T11:20:22;17.85;118.99
66102;HTU21D;52883;51.094;5.880;2022-09-09T11:22:51;17.58;118.99
66102;HTU21D;52883;51.094;5.880;2022-09-09T11:28:40;17.18;118.99
66102;HTU21D;52883;51.094;5.880;2022-09-09T11:37:17;18.38;118.99
66102;HTU21D;52883;51.094;5.880;2022-09-09T11:42:41;19.26;118.99
66102;HTU21D;52883;51.094;5.880;2022-09-09T11:45:24;19.53;118.99
66102;HTU21D;52883;51.094;5.880;2022-09-09T11:47:53;19.59;118.99
66102;HTU21D;52883;51.094;5.880;2022-09-09T11:52:49;19.96;118.99
66102;HTU21D;52883;51.094;5.880;2022-09-09T11:57:46;20.03;118.99
66102;HTU21D;52883;51.094;5.880;2022-09-09T12:00:38;20.10;118.99
66102;HTU21D;52883;51.094;5.880;2022-09-09T12:06:19;20.15;118.99
66102;HTU21D;52883;51.094;5.880;2022-09-09T12:08:53;20.31;118.99
66102;HTU21D;52883;51.094;5.880;2022-09-09T12:11:29;20.27;118.99
66102;HTU21D;52883;51.094;5.880;2022-09-09T12:13:58;20.21;118.99
66102;HTU21D;52883;51.094;5.880;2022-09-09T12:16:38;20.11;118.99
66102;HTU21D;52883;51.094;5.880;2022-09-09T12:19:20;20.01;118.99
66102;HTU21D;52883;51.094;5.880;2022-09-09T12:25:03;20.05;118.99
66102;HTU21D;52883;51.094;5.880;2022-09-09T12:27:45;20.28;118.99
66102;HTU21D;52883;51.094;5.880;2022-09-09T12:30:17;20.45;118.99
66102;HTU21D;52883;51.094;5.880;2022-09-09T12:32:43;20.65;118.99
66102;HTU21D;52883;51.094;5.880;2022-09-09T12:35:22;20.90;118.99
66102;HTU21D;52883;51.094;5.880;2022-09-09T12:37:56;21.09;118.99
66102;HTU21D;52883;51.094;5.880;2022-09-09T12:42:49;20.77;118.99
66102;HTU21D;52883;51.094;5.880;2022-09-09T12:45:21;20.70;118.99
66102;HTU21D;52883;51.094;5.880;2022-09-09T12:50:33;20.51;118.99
66102;HTU21D;52883;51.094;5.880;2022-09-09T12:53:03;20.48;118.99
66102;HTU21D;52883;51.094;5.880;2022-09-09T12:55:32;20.47;118.99
66102;HTU21D;52883;51.094;5.880;2022-09-09T12:58:02;20.47;118.99
66102;HTU21D;52883;51.094;5.880;2022-09-09T13:00:33;20.31;118.99
66102;HTU21D;52883;51.094;5.880;2022-09-09T13:03:02;19.73;118.99
66102;HTU21D;52883;51.094;5.880;2022-09-09T13:05:35;18.81;118.99
66102;HTU21D;52883;51.094;5.880;2022-09-09T13:08:08;18.15;118.99
66102;HTU21D;52883;51.094;5.880;2022-09-09T13:10:50;17.48;118.99
66102;HTU21D;52883;51.094;5.880;2022-09-09T13:13:36;17.06;118.99
66102;HTU21D;52883;51.094;5.880;2022-09-09T13:16:05;16.79;118.99
66102;HTU21D;52883;51.094;5.880;2022-09-09T13:18:35;16.65;118.99
66102;HTU21D;52883;51.094;5.880;2022-09-09T13:21:02;16.60;118.99
66102;HTU21D;52883;51.094;5.880;2022-09-09T13:23:34;16.51;118.99
66102;HTU21D;52883;51.094;5.880;2022-09-09T13:26:07;16.46;118.99
66102;HTU21D;52883;51.094;5.880;2022-09-09T13:28:46;16.39;118.99
66102;HTU21D;52883;51.094;5.880;2022-09-09T13:31:22;16.33;118.99
66102;HTU21D;52883;51.094;5.880;2022-09-09T13:33:48;16.34;118.99
66102;HTU21D;52883;51.094;5.880;2022-09-09T13:36:14;16.45;118.99
66102;HTU21D;52883;51.094;5.880;2022-09-09T13:41:34;16.64;118.99
66102;HTU21D;52883;51.094;5.880;2022-09-09T13:44:02;16.81;118.99
66102;HTU21D;52883;51.094;5.880;2022-09-09T13:46:39;17.00;118.99
66102;HTU21D;52883;51.094;5.880;2022-09-09T13:51:38;17.49;118.99
66102;HTU21D;52883;51.094;5.880;2022-09-09T13:54:05;17.79;118.99
66102;HTU21D;52883;51.094;5.880;2022-09-09T13:56:36;18.13;118.99
66102;HTU21D;52883;51.094;5.880;2022-09-09T13:59:05;18.43;118.99
66102;HTU21D;52883;51.094;5.880;2022-09-09T14:01:31;18.73;118.99
66102;HTU21D;52883;51.094;5.880;2022-09-09T14:03:57;19.06;118.99
66102;HTU21D;52883;51.094;5.880;2022-09-09T14:06:23;19.38;118.99
66102;HTU21D;52883;51.094;5.880;2022-09-09T14:08:50;19.65;118.99
66102;HTU21D;52883;51.094;5.880;2022-09-09T14:11:17;20.07;118.99
66102;HTU21D;52883;51.094;5.880;2022-09-09T14:13:43;20.40;118.99
66102;HTU21D;52883;51.094;5.880;2022-09-09T14:16:09;20.58;118.99
66102;HTU21D;52883;51.094;5.880;2022-09-09T14:18:35;20.81;118.99
66102;HTU21D;52883;51.094;5.880;2022-09-09T14:21:01;21.02;118.99
66102;HTU21D;52883;51.094;5.880;2022-09-09T14:23:28;21.28;118.99
66102;HTU21D;52883;51.094;5.880;2022-09-09T14:25:55;21.48;118.99
66102;HTU21D;52883;51.094;5.880;2022-09-09T14:28:21;21.42;118.99
66102;HTU21D;52883;51.094;5.880;2022-09-09T14:30:47;21.31;118.99
66102;HTU21D;52883;51.094;5.880;2022-09-09T14:33:15;20.98;118.99
66102;HTU21D;52883;51.094;5.880;2022-09-09T14:35:42;20.72;118.99
66102;HTU21D;52883;51.094;5.880;2022-09-09T14:38:08;20.74;118.99
66102;HTU21D;52883;51.094;5.880;2022-09-09T14:40:35;20.76;118.99
66102;HTU21D;52883;51.094;5.880;2022-09-09T14:43:01;20.81;118.99
66102;HTU21D;52883;51.094;5.880;2022-09-09T14:45:27;20.81;118.99
66102;HTU21D;52883;51.094;5.880;2022-09-09T14:47:54;20.88;118.99
66102;HTU21D;52883;51.094;5.880;2022-09-09T14:50:20;21.03;118.99
66102;HTU21D;52883;51.094;5.880;2022-09-09T14:52:46;21.27;118.99
66102;HTU21D;52883;51.094;5.880;2022-09-09T14:55:12;21.16;118.99
66102;HTU21D;52883;51.094;5.880;2022-09-09T14:57:38;20.93;118.99
66102;HTU21D;52883;51.094;5.880;2022-09-09T15:00:06;20.62;118.99
66102;HTU21D;52883;51.094;5.880;2022-09-09T15:02:32;20.31;118.99
66102;HTU21D;52883;51.094;5.880;2022-09-09T15:04:58;20.03;118.99
66102;HTU21D;52883;51.094;5.880;2022-09-09T15:07:25;19.95;118.99
66102;HTU21D;52883;51.094;5.880;2022-09-09T15:09:52;19.89;118.99
66102;HTU21D;52883;51.094;5.880;2022-09-09T15:12:19;19.83;118.99
66102;HTU21D;52883;51.094;5.880;2022-09-09T15:14:46;19.74;118.99
66102;HTU21D;52883;51.094;5.880;2022-09-09T15:17:12;19.79;118.99
66102;HTU21D;52883;51.094;5.880;2022-09-09T15:19:38;19.84;118.99
66102;HTU21D;52883;51.094;5.880;2022-09-09T15:22:05;20.09;118.99
66102;HTU21D;52883;51.094;5.880;2022-09-09T15:24:34;20.30;118.99
66102;HTU21D;52883;51.094;5.880;2022-09-09T15:27:01;20.35;118.99
66102;HTU21D;52883;51.094;5.880;2022-09-09T15:29:28;20.30;118.99
66102;HTU21D;52883;51.094;5.880;2022-09-09T15:31:54;20.12;118.99
66102;HTU21D;52883;51.094;5.880;2022-09-09T15:34:21;19.96;118.99
66102;HTU21D;52883;51.094;5.880;2022-09-09T15:36:47;19.75;118.99
66102;HTU21D;52883;51.094;5.880;2022-09-09T15:39:17;19.60;118.99
66102;HTU21D;52883;51.094;5.880;2022-09-09T15:41:47;19.35;118.99
66102;HTU21D;52883;51.094;5.880;2022-09-09T15:44:13;19.21;118.99
66102;HTU21D;52883;51.094;5.880;2022-09-09T15:46:50;19.07;118.99
66102;HTU21D;52883;51.094;5.880;2022-09-09T15:49:19;19.06;118.99
66102;HTU21D;52883;51.094;5.880;2022-09-09T15:51:47;18.97;118.99
66102;HTU21D;52883;51.094;5.880;2022-09-09T15:54:17;18.87;118.99
66102;HTU21D;52883;51.094;5.880;2022-09-09T15:56:45;18.77;118.99
66102;HTU21D;52883;51.094;5.880;2022-09-09T15:59:11;18.93;118.99
66102;HTU21D;52883;51.094;5.880;2022-09-09T16:01:37;19.30;118.99
66102;HTU21D;52883;51.094;5.880;2022-09-09T16:04:05;19.48;118.99
66102;HTU21D;52883;51.094;5.880;2022-09-09T16:06:31;19.46;118.99
66102;HTU21D;52883;51.094;5.880;2022-09-09T16:08:58;19.36;118.99
66102;HTU21D;52883;51.094;5.880;2022-09-09T16:11:29;19.29;118.99
66102;HTU21D;52883;51.094;5.880;2022-09-09T16:13:55;19.20;118.99
66102;HTU21D;52883;51.094;5.880;2022-09-09T16:16:23;19.12;118.99
66102;HTU21D;52883;51.094;5.880;2022-09-09T16:18:53;19.08;118.99
66102;HTU21D;52883;51.094;5.880;2022-09-09T16:23:46;19.08;118.99
66102;HTU21D;52883;51.094;5.880;2022-09-09T16:26:14;19.08;118.99
66102;HTU21D;52883;51.094;5.880;2022-09-09T16:28:40;19.08;118.99
66102;HTU21D;52883;51.094;5.880;2022-09-09T16:31:07;19.09;118.99
66102;HTU21D;52883;51.094;5.880;2022-09-09T16:33:33;19.08;118.99
66102;HTU21D;52883;51.094;5.880;2022-09-09T16:36:15;19.09;118.99
66102;HTU21D;52883;51.094;5.880;2022-09-09T16:38:41;19.13;118.99
66102;HTU21D;52883;51.094;5.880;2022-09-09T16:41:08;19.13;118.99
66102;HTU21D;52883;51.094;5.880;2022-09-09T16:43:36;19.01;118.99
66102;HTU21D;52883;51.094;5.880;2022-09-09T16:46:03;18.85;118.99
66102;HTU21D;52883;51.094;5.880;2022-09-09T16:48:33;18.68;118.99
66102;HTU21D;52883;51.094;5.880;2022-09-09T16:51:11;18.42;118.99
66102;HTU21D;52883;51.094;5.880;2022-09-09T16:53:39;18.22;118.99
66102;HTU21D;52883;51.094;5.880;2022-09-09T16:56:11;18.05;118.99
66102;HTU21D;52883;51.094;5.880;2022-09-09T16:58:36;17.87;118.99
66102;HTU21D;52883;51.094;5.880;2022-09-09T17:01:03;17.77;118.99
66102;HTU21D;52883;51.094;5.880;2022-09-09T17:03:30;17.66;118.99
66102;HTU21D;52883;51.094;5.880;2022-09-09T17:05:58;17.62;118.99
66102;HTU21D;52883;51.094;5.880;2022-09-09T17:08:28;17.55;118.99
66102;HTU21D;52883;51.094;5.880;2022-09-09T17:10:54;17.51;118.99
66102;HTU21D;52883;51.094;5.880;2022-09-09T17:13:20;17.39;118.99
66102;HTU21D;52883;51.094;5.880;2022-09-09T17:15:45;17.34;118.99